createdAt,value
2019-05-11T00:02:21.606Z,23.43
2019-05-11T00:04:50.250Z,20.97
2019-05-11T00:07:18.712Z,19.95
2019-05-11T00:09:57.442Z,21.97
2019-05-11T00:12:17.439Z,21.20
2019-05-11T00:14:46.163Z,23.38
2019-05-11T00:17:14.743Z,24.00
2019-05-11T00:19:43.261Z,23.55
2019-05-11T00:22:11.771Z,24.50
2019-05-11T00:24:40.254Z,22.22
2019-05-11T00:27:08.727Z,23.50
2019-05-11T00:29:37.238Z,24.75
2019-05-11T00:32:25.057Z,22.80
2019-05-11T00:34:53.633Z,24.77
2019-05-11T00:37:22.122Z,23.47
2019-05-11T00:39:50.663Z,25.27
2019-05-11T00:42:19.346Z,23.80
2019-05-11T00:44:47.941Z,26.53
2019-05-11T00:47:16.480Z,29.93
2019-05-11T00:49:45.085Z,28.50
2019-05-11T00:52:13.676Z,27.47
2019-05-11T00:54:42.145Z,26.03
2019-05-11T00:57:10.750Z,25.00
2019-05-11T00:59:39.249Z,20.43
2019-05-11T01:02:07.735Z,26.30
2019-05-11T01:04:36.329Z,27.80
2019-05-11T01:07:04.847Z,25.37
2019-05-11T01:09:33.410Z,19.93
2019-05-11T01:12:01.932Z,25.17
2019-05-11T01:14:30.457Z,24.30
2019-05-11T01:16:59.079Z,29.18
2019-05-11T01:19:27.554Z,26.07
2019-05-11T01:21:56.069Z,28.87
2019-05-11T01:24:24.740Z,33.80
2019-05-11T01:26:53.344Z,24.50
2019-05-11T01:29:21.905Z,31.43
2019-05-11T01:31:50.455Z,30.87
2019-05-11T01:34:18.937Z,30.73
2019-05-11T01:36:47.633Z,28.30
2019-05-11T01:39:16.149Z,29.73
2019-05-11T01:41:44.671Z,31.47
2019-05-11T01:44:15.905Z,28.77
2019-05-11T01:46:44.496Z,31.60
2019-05-11T01:49:13.138Z,31.43
2019-05-11T01:51:41.680Z,27.23
2019-05-11T01:54:10.177Z,27.07
2019-05-11T01:56:38.680Z,25.83
2019-05-11T01:59:07.233Z,33.13
2019-05-11T02:01:35.699Z,33.47
2019-05-11T02:04:04.259Z,34.40
2019-05-11T02:06:32.739Z,31.23
2019-05-11T02:09:01.311Z,28.50
2019-05-11T02:11:29.815Z,29.87
2019-05-11T02:13:58.365Z,33.20
2019-05-11T02:16:26.900Z,36.47
2019-05-11T02:18:55.489Z,36.83
2019-05-11T02:21:24.058Z,33.87
2019-05-11T02:23:52.549Z,41.03
2019-05-11T02:26:21.061Z,38.53
2019-05-11T02:28:49.682Z,34.17
2019-05-11T02:31:18.246Z,30.47
2019-05-11T02:33:46.756Z,34.80
2019-05-11T02:36:15.312Z,32.77
2019-05-11T02:38:43.855Z,34.98
2019-05-11T02:41:12.358Z,32.67
2019-05-11T02:43:40.989Z,35.17
2019-05-11T02:46:09.737Z,33.33
2019-05-11T02:48:38.323Z,27.67
2019-05-11T02:51:08.515Z,27.83
2019-05-11T02:53:39.051Z,32.20
2019-05-11T02:56:07.599Z,34.13
2019-05-11T02:58:36.177Z,34.33
2019-05-11T03:01:04.702Z,37.17
2019-05-11T03:03:33.250Z,34.50
2019-05-11T03:06:01.778Z,36.60
2019-05-11T03:08:30.297Z,36.13
2019-05-11T03:10:58.845Z,35.27
2019-05-11T03:13:27.395Z,35.87
2019-05-11T03:15:55.900Z,34.63
2019-05-11T03:18:24.376Z,35.67
2019-05-11T03:20:52.960Z,29.70
2019-05-11T03:23:21.557Z,35.77
2019-05-11T03:25:50.117Z,36.53
2019-05-11T03:28:18.698Z,30.80
2019-05-11T03:30:47.286Z,34.47
2019-05-11T03:33:15.839Z,26.02
2019-05-11T03:35:44.355Z,30.07
2019-05-11T03:38:12.918Z,35.43
2019-05-11T03:40:41.552Z,27.63
2019-05-11T03:43:10.162Z,30.93
2019-05-11T03:45:38.644Z,32.33
2019-05-11T03:48:07.285Z,31.00
2019-05-11T03:50:35.786Z,25.77
2019-05-11T03:53:04.338Z,30.50
2019-05-11T03:55:32.930Z,34.17
2019-05-11T03:58:01.535Z,31.73
2019-05-11T04:00:30.005Z,32.20
2019-05-11T04:02:58.557Z,35.83
2019-05-11T04:05:27.067Z,30.23
2019-05-11T04:07:55.623Z,30.10
2019-05-11T04:10:25.394Z,26.63
2019-05-11T04:12:54.300Z,28.43
2019-05-11T04:15:22.907Z,30.77
2019-05-11T04:17:51.480Z,32.10
2019-05-11T04:20:20.354Z,21.23
2019-05-11T04:22:48.914Z,28.97
2019-05-11T04:25:17.630Z,31.63
2019-05-11T04:27:46.220Z,32.67
2019-05-11T04:30:14.752Z,31.27
2019-05-11T04:32:43.371Z,30.27
2019-05-11T04:35:12.477Z,31.50
2019-05-11T04:37:40.966Z,32.73
2019-05-11T04:40:09.721Z,22.17
2019-05-11T04:42:53.424Z,32.73
2019-05-11T04:45:09.110Z,30.20
2019-05-11T04:47:37.774Z,35.97
2019-05-11T04:50:08.298Z,44.60
2019-05-11T04:52:36.844Z,30.30
2019-05-11T04:55:05.784Z,37.60
2019-05-11T04:57:34.351Z,37.73
2019-05-11T05:00:02.910Z,33.03
2019-05-11T05:02:31.397Z,30.60
2019-05-11T05:04:59.896Z,30.67
2019-05-11T05:07:28.451Z,27.47
2019-05-11T05:09:56.956Z,18.93
2019-05-11T05:12:25.529Z,20.10
2019-05-11T05:14:54.049Z,31.37
2019-05-11T05:17:22.578Z,24.57
2019-05-11T05:19:51.068Z,28.70
2019-05-11T05:22:19.637Z,17.20
2019-05-11T05:24:48.126Z,24.17
2019-05-11T05:27:16.695Z,24.37
2019-05-11T05:29:45.160Z,26.40
2019-05-11T05:32:13.660Z,21.53
2019-05-11T05:34:42.235Z,22.10
2019-05-11T05:37:10.723Z,24.03
2019-05-11T05:39:39.212Z,21.47
2019-05-11T05:42:07.723Z,25.83
2019-05-11T05:44:36.211Z,21.73
2019-05-11T05:47:04.864Z,19.43
2019-05-11T05:49:33.345Z,24.80
2019-05-11T05:52:01.955Z,24.17
2019-05-11T05:54:30.478Z,20.27
2019-05-11T05:56:58.950Z,16.20
2019-05-11T05:59:27.409Z,12.93
2019-05-11T06:01:55.904Z,11.03
2019-05-11T06:04:24.460Z,19.70
2019-05-11T06:06:53.028Z,11.33
2019-05-11T06:09:21.509Z,20.47
2019-05-11T06:11:49.981Z,20.70
2019-05-11T06:14:18.473Z,19.13
2019-05-11T06:16:47.022Z,19.07
2019-05-11T06:19:15.654Z,14.77
2019-05-11T06:21:45.787Z,14.63
2019-05-11T06:24:14.438Z,12.13
2019-05-11T06:26:42.965Z,14.23
2019-05-11T06:29:11.530Z,13.33
2019-05-11T06:31:40.072Z,17.83
2019-05-11T06:34:08.564Z,16.13
2019-05-11T06:36:37.046Z,16.23
2019-05-11T06:39:08.140Z,17.30
2019-05-11T06:41:37.270Z,11.27
2019-05-11T06:44:06.390Z,13.30
2019-05-11T06:46:35.370Z,11.67
2019-05-11T06:49:04.237Z,18.60
2019-05-11T06:51:32.732Z,13.57
2019-05-11T06:54:01.212Z,11.77
2019-05-11T06:56:29.786Z,11.97
2019-05-11T06:58:58.339Z,11.93
2019-05-11T07:01:26.846Z,11.10
2019-05-11T07:03:55.597Z,9.37
2019-05-11T07:06:28.179Z,13.93
2019-05-11T07:08:54.290Z,8.53
2019-05-11T07:11:22.825Z,9.00
2019-05-11T07:13:51.340Z,12.57
2019-05-11T07:16:19.967Z,13.95
2019-05-11T07:18:48.464Z,12.00
2019-05-11T07:21:17.098Z,14.27
2019-05-11T07:23:45.585Z,11.77
2019-05-11T07:26:14.136Z,11.43
2019-05-11T07:28:42.699Z,19.47
2019-05-11T07:31:30.936Z,15.70
2019-05-11T07:34:01.523Z,11.10
2019-05-11T07:36:30.085Z,23.73
2019-05-11T07:38:58.667Z,17.57
2019-05-11T07:41:28.183Z,15.77
2019-05-11T07:43:58.991Z,12.23
2019-05-11T07:46:28.773Z,15.20
2019-05-11T07:48:58.492Z,15.47
2019-05-11T07:51:28.768Z,14.60
2019-05-11T07:53:57.981Z,12.50
2019-05-11T07:56:28.508Z,13.33
2019-05-11T07:58:58.115Z,10.20
2019-05-11T08:01:28.175Z,10.53
2019-05-11T08:03:58.562Z,13.15
2019-05-11T08:06:28.579Z,18.97
2019-05-11T08:08:58.741Z,16.17
2019-05-11T08:11:30.752Z,14.90
2019-05-11T08:13:58.483Z,15.83
2019-05-11T08:16:28.616Z,12.07
2019-05-11T08:18:58.841Z,13.33
2019-05-11T08:21:28.397Z,15.27
2019-05-11T08:24:18.018Z,7.20
2019-05-11T08:26:59.036Z,14.97
2019-05-11T08:29:27.974Z,13.32
2019-05-11T08:31:57.984Z,7.93
2019-05-11T08:34:46.114Z,13.57
2019-05-11T08:37:14.573Z,8.47
2019-05-11T08:39:43.196Z,12.17
2019-05-11T08:42:11.764Z,9.07
2019-05-11T08:44:40.249Z,18.13
2019-05-11T08:47:08.722Z,12.67
2019-05-11T08:49:38.072Z,10.60
2019-05-11T08:52:28.260Z,11.40
2019-05-11T08:54:57.787Z,13.93
2019-05-11T08:57:28.566Z,6.72
2019-05-11T08:59:57.935Z,9.03
2019-05-11T09:02:27.833Z,8.90
2019-05-11T09:04:58.940Z,9.90
2019-05-11T09:07:27.815Z,16.07
2019-05-11T09:09:58.498Z,12.10
2019-05-11T09:12:28.777Z,15.97
2019-05-11T09:14:58.160Z,8.03
2019-05-11T09:17:28.890Z,9.93
2019-05-11T09:19:58.162Z,13.80
2019-05-11T09:22:28.291Z,8.98
2019-05-11T09:24:58.273Z,14.95
2019-05-11T09:27:28.660Z,14.05
2019-05-11T09:29:58.737Z,10.03
2019-05-11T09:32:28.523Z,9.60
2019-05-11T09:34:58.079Z,12.37
2019-05-11T09:37:27.757Z,11.88
2019-05-11T09:39:58.370Z,8.17
2019-05-11T09:42:28.555Z,12.25
2019-05-11T09:44:57.729Z,10.65
2019-05-11T09:47:28.068Z,9.20
2019-05-11T09:49:58.219Z,9.87
2019-05-11T09:52:32.455Z,13.98
2019-05-11T09:55:01.498Z,15.07
2019-05-11T09:57:30.039Z,13.67
2019-05-11T09:59:58.531Z,10.23
2019-05-11T10:02:28.033Z,11.75
2019-05-11T10:04:58.419Z,10.50
2019-05-11T10:07:28.617Z,12.10
2019-05-11T10:09:58.282Z,14.53
2019-05-11T10:12:28.575Z,11.43
2019-05-11T10:14:59.106Z,12.83
2019-05-11T10:17:28.784Z,13.15
2019-05-11T10:19:58.302Z,12.70
2019-05-11T10:22:27.886Z,13.68
2019-05-11T10:24:58.259Z,10.43
2019-05-11T10:27:28.043Z,10.53
2019-05-11T10:29:58.897Z,8.40
2019-05-11T10:32:28.782Z,8.55
2019-05-11T10:34:58.389Z,11.80
2019-05-11T10:37:28.298Z,7.80
2019-05-11T10:39:57.784Z,9.73
2019-05-11T10:42:28.509Z,11.05
2019-05-11T10:44:58.282Z,6.43
2019-05-11T10:47:27.838Z,9.50
2019-05-11T10:49:57.901Z,6.70
2019-05-11T10:52:28.543Z,9.58
2019-05-11T10:54:58.562Z,12.35
2019-05-11T10:57:28.291Z,10.78
2019-05-11T10:59:57.930Z,10.90
2019-05-11T11:02:27.870Z,11.45
2019-05-11T11:04:58.723Z,10.15
2019-05-11T11:07:28.802Z,10.32
2019-05-11T11:09:58.047Z,11.55
2019-05-11T11:12:27.874Z,7.05
2019-05-11T11:14:58.714Z,7.22
2019-05-11T11:17:28.875Z,9.95
2019-05-11T11:19:58.127Z,8.68
2019-05-11T11:22:39.799Z,7.47
2019-05-11T11:25:00.188Z,6.65
2019-05-11T11:27:29.145Z,7.97
2019-05-11T11:29:58.244Z,9.87
2019-05-11T11:32:27.823Z,5.20
2019-05-11T11:34:57.748Z,8.25
2019-05-11T11:37:28.137Z,7.33
2019-05-11T11:39:58.102Z,8.83
2019-05-11T11:42:28.351Z,8.55
2019-05-11T11:44:58.743Z,6.17
2019-05-11T11:47:28.178Z,9.83
2019-05-11T11:49:58.436Z,7.22
2019-05-11T11:52:27.680Z,9.38
2019-05-11T11:54:58.471Z,10.85
2019-05-11T11:57:28.263Z,4.78
2019-05-11T11:59:58.752Z,8.13
2019-05-11T12:02:27.942Z,6.83
2019-05-11T12:04:58.111Z,4.25
2019-05-11T12:07:28.481Z,8.95
2019-05-11T12:09:58.748Z,7.87
2019-05-11T12:12:28.019Z,5.10
2019-05-11T12:14:58.498Z,7.30
2019-05-11T12:17:28.544Z,6.05
2019-05-11T12:19:58.597Z,6.10
2019-05-11T12:22:27.994Z,6.65
2019-05-11T12:24:58.849Z,7.10
2019-05-11T12:27:28.728Z,9.98
2019-05-11T12:29:58.175Z,7.50
2019-05-11T12:32:28.421Z,9.43
2019-05-11T12:34:59.718Z,6.83
2019-05-11T12:37:28.330Z,6.03
2019-05-11T12:39:58.287Z,8.18
2019-05-11T12:42:28.384Z,7.53
2019-05-11T12:44:57.886Z,5.50
2019-05-11T12:47:28.301Z,13.40
2019-05-11T12:49:58.541Z,8.53
2019-05-11T12:52:28.033Z,8.53
2019-05-11T12:54:58.377Z,5.05
2019-05-11T12:57:28.124Z,7.60
2019-05-11T12:59:58.218Z,5.73
2019-05-11T13:02:27.978Z,5.35
2019-05-11T13:04:58.449Z,7.17
2019-05-11T13:07:28.437Z,8.95
2019-05-11T13:09:58.044Z,6.58
2019-05-11T13:12:27.965Z,6.78
2019-05-11T13:14:58.046Z,5.93
2019-05-11T13:17:36.617Z,5.72
2019-05-11T13:19:58.753Z,5.47
2019-05-11T13:22:29.027Z,4.70
2019-05-11T13:25:17.701Z,6.37
2019-05-11T13:27:46.469Z,5.30
2019-05-11T13:30:15.326Z,4.85
2019-05-11T13:32:43.797Z,3.92
2019-05-11T13:35:12.780Z,6.00
2019-05-11T13:37:41.359Z,6.33
2019-05-11T13:40:10.165Z,6.00
2019-05-11T13:42:39.463Z,4.97
2019-05-11T13:45:09.566Z,5.25
2019-05-11T13:47:51.819Z,5.40
2019-05-11T13:50:09.310Z,3.92
2019-05-11T13:52:38.597Z,5.03
2019-05-11T13:55:07.858Z,5.30
2019-05-11T13:57:38.054Z,4.97
2019-05-11T14:00:08.547Z,5.03
2019-05-11T14:02:37.969Z,6.72
2019-05-11T14:05:09.022Z,7.95
2019-05-11T14:07:38.097Z,7.58
2019-05-11T14:10:08.202Z,2.80
2019-05-11T14:12:38.559Z,8.73
2019-05-11T14:15:08.866Z,4.50
2019-05-11T14:17:37.983Z,7.90
2019-05-11T14:20:10.383Z,5.50
2019-05-11T14:22:39.532Z,5.55
2019-05-11T14:25:08.752Z,5.28
2019-05-11T14:27:39.053Z,5.15
2019-05-11T14:30:09.911Z,5.50
2019-05-11T14:32:39.079Z,3.50
2019-05-11T14:35:12.034Z,3.98
2019-05-11T14:37:38.728Z,5.22
2019-05-11T14:40:08.793Z,3.65
2019-05-11T14:42:38.263Z,5.55
2019-05-11T14:45:08.546Z,7.90
2019-05-11T14:47:38.778Z,4.28
2019-05-11T14:50:08.748Z,4.10
2019-05-11T14:52:38.793Z,3.10
2019-05-11T14:55:08.333Z,5.90
2019-05-11T14:57:39.368Z,4.10
2019-05-11T15:00:08.459Z,5.17
2019-05-11T15:02:49.081Z,6.55
2019-05-11T15:05:18.524Z,4.37
2019-05-11T15:07:48.145Z,4.15
2019-05-11T15:10:18.848Z,3.02
2019-05-11T15:12:48.883Z,7.25
2019-05-11T15:15:18.810Z,4.85
2019-05-11T15:17:49.160Z,4.85
2019-05-11T15:20:18.532Z,3.77
2019-05-11T15:22:48.883Z,2.50
2019-05-11T15:25:19.413Z,6.50
2019-05-11T15:27:48.923Z,5.17
2019-05-11T15:30:19.087Z,5.17
2019-05-11T15:32:48.383Z,4.10
2019-05-11T15:35:18.491Z,5.87
2019-05-11T15:37:48.314Z,3.42
2019-05-11T15:40:18.938Z,4.90
2019-05-11T15:42:48.609Z,2.52
2019-05-11T15:45:19.334Z,2.75
2019-05-11T15:47:48.747Z,6.25
2019-05-11T15:50:19.902Z,5.53
2019-05-11T15:52:49.051Z,3.95
2019-05-11T15:55:19.127Z,3.77
2019-05-11T15:57:48.504Z,5.50
2019-05-11T16:00:17.856Z,3.42
2019-05-11T16:02:48.937Z,2.77
2019-05-11T16:05:18.246Z,3.75
2019-05-11T16:07:49.436Z,4.10
2019-05-11T16:10:18.707Z,6.83
2019-05-11T16:12:48.658Z,3.42
2019-05-11T16:15:19.228Z,9.30
2019-05-11T16:17:48.939Z,3.45
2019-05-11T16:20:19.337Z,3.62
2019-05-11T16:22:48.190Z,4.35
2019-05-11T16:25:19.809Z,5.12
2019-05-11T16:27:47.463Z,2.50
2019-05-11T16:30:18.374Z,3.33
2019-05-11T16:32:48.378Z,1.92
2019-05-11T16:35:17.937Z,5.58
2019-05-11T16:37:48.761Z,3.55
2019-05-11T16:40:20.168Z,3.33
2019-05-11T16:42:47.920Z,2.20
2019-05-11T16:45:18.899Z,2.90
2019-05-11T16:47:48.310Z,5.03
2019-05-11T16:50:18.038Z,3.40
2019-05-11T16:52:48.436Z,1.87
2019-05-11T16:55:18.277Z,2.25
2019-05-11T16:57:48.429Z,2.70
2019-05-11T17:00:17.978Z,5.20
2019-05-11T17:02:48.880Z,3.10
2019-05-11T17:05:25.968Z,2.12
2019-05-11T17:07:48.398Z,3.12
2019-05-11T17:10:18.096Z,3.08
2019-05-11T17:12:48.271Z,2.67
2019-05-11T17:15:18.652Z,15.08
2019-05-11T17:17:48.616Z,3.42
2019-05-11T17:20:18.848Z,3.85
2019-05-11T17:22:48.112Z,4.78
2019-05-11T17:25:19.398Z,2.67
2019-05-11T17:27:48.710Z,2.47
2019-05-11T17:30:19.924Z,5.40
2019-05-11T17:32:49.516Z,2.72
2019-05-11T17:35:18.520Z,4.67
2019-05-11T17:37:48.449Z,3.77
2019-05-11T17:40:20.454Z,5.08
2019-05-11T17:42:48.231Z,2.00
2019-05-11T17:45:19.020Z,1.95
2019-05-11T17:47:47.357Z,2.58
2019-05-11T17:50:16.005Z,3.40
2019-05-11T17:52:44.561Z,2.12
2019-05-11T17:55:13.189Z,1.02
2019-05-11T17:57:42.176Z,2.55
2019-05-11T18:00:11.419Z,3.93
2019-05-11T18:02:39.979Z,4.90
2019-05-11T18:05:09.191Z,2.98
2019-05-11T18:07:38.739Z,3.20
2019-05-11T18:10:08.364Z,6.67
2019-05-11T18:12:39.058Z,3.83
2019-05-11T18:15:09.445Z,2.93
2019-05-11T18:17:38.042Z,5.03
2019-05-11T18:20:16.914Z,3.27
2019-05-11T18:22:39.218Z,2.58
2019-05-11T18:25:08.999Z,2.67
2019-05-11T18:27:58.175Z,3.15
2019-05-11T18:30:29.123Z,2.65
2019-05-11T18:32:59.399Z,1.45
2019-05-11T18:35:27.882Z,4.37
2019-05-11T18:37:56.535Z,3.83
2019-05-11T18:40:25.109Z,1.95
2019-05-11T18:42:53.592Z,7.53
2019-05-11T18:45:22.100Z,3.22
2019-05-11T18:47:50.698Z,7.28
2019-05-11T18:50:29.824Z,7.45
2019-05-11T18:52:49.663Z,5.10
2019-05-11T18:55:19.607Z,4.37
2019-05-11T18:57:49.261Z,3.02
2019-05-11T19:00:18.934Z,4.15
2019-05-11T19:03:08.833Z,3.65
2019-05-11T19:05:38.800Z,3.52
2019-05-11T19:08:07.359Z,4.62
2019-05-11T19:10:38.212Z,4.00
2019-05-11T19:13:06.181Z,3.98
2019-05-11T19:15:34.718Z,5.55
2019-05-11T19:18:03.252Z,3.23
2019-05-11T19:20:44.596Z,5.70
2019-05-11T19:23:01.969Z,2.55
2019-05-11T19:25:30.588Z,3.02
2019-05-11T19:27:59.169Z,3.02
2019-05-11T19:30:27.815Z,2.70
2019-05-11T19:32:58.853Z,4.20
2019-05-11T19:35:28.671Z,4.22
2019-05-11T19:37:57.868Z,3.58
2019-05-11T19:40:26.774Z,4.60
2019-05-11T19:42:59.047Z,4.35
2019-05-11T19:45:29.351Z,3.85
2019-05-11T19:47:58.417Z,2.37
2019-05-11T19:50:27.089Z,4.40
2019-05-11T19:52:57.886Z,3.10
2019-05-11T19:55:28.360Z,3.92
2019-05-11T19:57:56.511Z,4.55
2019-05-11T20:00:24.990Z,3.17
2019-05-11T20:02:54.421Z,2.45
2019-05-11T20:05:22.958Z,2.90
2019-05-11T20:07:51.438Z,4.03
2019-05-11T20:10:19.941Z,2.85
2019-05-11T20:12:48.737Z,3.58
2019-05-11T20:15:18.945Z,3.75
2019-05-11T20:17:48.734Z,4.05
2019-05-11T20:20:18.476Z,3.37
2019-05-11T20:22:48.272Z,3.60
2019-05-11T20:25:18.514Z,2.47
2019-05-11T20:27:48.847Z,3.98
2019-05-11T20:30:19.013Z,2.58
2019-05-11T20:32:48.822Z,2.62
2019-05-11T20:35:17.893Z,2.00
2019-05-11T20:37:46.457Z,6.17
2019-05-11T20:40:15.383Z,3.15
2019-05-11T20:42:43.939Z,2.95
2019-05-11T20:45:12.580Z,2.10
2019-05-11T20:47:41.411Z,3.98
2019-05-11T20:50:10.433Z,2.87
2019-05-11T20:52:40.862Z,3.00
2019-05-11T20:55:09.478Z,3.35
2019-05-11T20:57:39.405Z,3.65
2019-05-11T21:00:10.246Z,4.37
2019-05-11T21:02:38.729Z,3.83
2019-05-11T21:05:09.150Z,3.02
2019-05-11T21:07:38.742Z,1.87
2019-05-11T21:10:08.852Z,2.50
2019-05-11T21:12:38.625Z,4.30
2019-05-11T21:15:09.108Z,3.87
2019-05-11T21:17:37.805Z,3.45
2019-05-11T21:20:09.597Z,2.27
2019-05-11T21:22:40.720Z,2.67
2019-05-11T21:25:09.475Z,3.07
2019-05-11T21:27:38.611Z,4.50
2019-05-11T21:30:09.116Z,2.53
2019-05-11T21:32:38.851Z,2.90
2019-05-11T21:35:08.912Z,2.85
2019-05-11T21:37:38.949Z,8.40
2019-05-11T21:40:09.360Z,4.58
2019-05-11T21:42:39.407Z,4.87
2019-05-11T21:45:10.013Z,5.27
2019-05-11T21:47:39.427Z,3.80
2019-05-11T21:50:09.833Z,2.55
2019-05-11T21:52:38.900Z,3.83
2019-05-11T21:55:09.652Z,4.67
2019-05-11T21:57:38.810Z,2.83
2019-05-11T22:00:09.270Z,3.87
2019-05-11T22:02:38.605Z,4.10
2019-05-11T22:05:28.883Z,2.37
2019-05-11T22:07:58.270Z,1.35
2019-05-11T22:10:28.303Z,3.40
2019-05-11T22:12:57.131Z,4.60
2019-05-11T22:15:25.742Z,4.45
2019-05-11T22:17:54.229Z,1.95
2019-05-11T22:20:22.803Z,6.67
2019-05-11T22:22:51.347Z,4.33
2019-05-11T22:25:19.837Z,2.80
2019-05-11T22:27:48.970Z,2.95
2019-05-11T22:30:18.486Z,4.30
2019-05-11T22:32:47.764Z,3.22
2019-05-11T22:35:18.382Z,1.97
2019-05-11T22:37:48.753Z,3.13
2019-05-11T22:40:17.154Z,4.73
2019-05-11T22:42:45.780Z,1.87
2019-05-11T22:45:15.197Z,4.90
2019-05-11T22:47:43.724Z,3.30
2019-05-11T22:50:12.361Z,4.13
2019-05-11T22:52:40.931Z,4.80
2019-05-11T22:55:11.849Z,3.47
2019-05-11T22:57:40.036Z,4.53
2019-05-11T23:00:10.936Z,3.50
2019-05-11T23:02:39.521Z,4.27
2019-05-11T23:05:08.829Z,3.37
2019-05-11T23:07:41.496Z,3.87
2019-05-11T23:10:10.193Z,5.30
2019-05-11T23:12:38.932Z,4.50
2019-05-11T23:15:10.006Z,3.17
2019-05-11T23:17:38.780Z,5.80
2019-05-11T23:20:09.818Z,3.77
2019-05-11T23:22:56.793Z,3.00
2019-05-11T23:25:18.604Z,3.20
2019-05-11T23:27:48.458Z,3.80
2019-05-11T23:30:19.750Z,3.47
2019-05-11T23:32:49.311Z,8.00
2019-05-11T23:35:18.903Z,4.50
2019-05-11T23:37:49.401Z,4.50
2019-05-11T23:40:20.194Z,6.30
2019-05-11T23:42:49.372Z,4.50
2019-05-11T23:45:19.119Z,4.50
2019-05-11T23:47:48.616Z,3.70
2019-05-11T23:50:19.252Z,2.50
2019-05-11T23:53:05.086Z,3.53
2019-05-11T23:55:19.533Z,6.40
2019-05-11T23:57:49.077Z,5.53
